createdAt,value
2022-07-26T00:00:32.148Z,0.00
2022-07-26T00:01:32.393Z,0.00
2022-07-26T00:02:32.200Z,0.00
2022-07-26T00:03:32.134Z,0.00
2022-07-26T00:04:32.107Z,0.00
2022-07-26T00:05:32.108Z,0.00
2022-07-26T00:06:32.087Z,0.00
2022-07-26T00:07:36.592Z,0.00
2022-07-26T00:08:32.086Z,0.00
2022-07-26T00:09:32.108Z,0.00
2022-07-26T00:10:32.044Z,0.00
2022-07-26T00:11:32.036Z,0.00
2022-07-26T00:12:32.026Z,0.00
2022-07-26T00:13:32.035Z,0.00
2022-07-26T00:14:32.000Z,0.00
2022-07-26T00:15:31.991Z,0.00
2022-07-26T00:16:32.024Z,0.00
2022-07-26T00:17:31.968Z,0.00
2022-07-26T00:18:31.988Z,0.00
2022-07-26T00:19:31.948Z,0.00
2022-07-26T00:20:31.934Z,0.00
2022-07-26T00:21:31.939Z,0.00
2022-07-26T00:22:32.459Z,0.00
2022-07-26T00:23:31.917Z,0.00
2022-07-26T00:24:35.365Z,0.00
2022-07-26T00:25:31.880Z,0.00
2022-07-26T00:26:31.872Z,0.00
2022-07-26T00:27:31.854Z,0.00
2022-07-26T00:28:31.863Z,0.00
2022-07-26T00:29:31.845Z,0.00
2022-07-26T00:30:31.828Z,0.00
2022-07-26T00:31:31.866Z,0.00
2022-07-26T00:32:31.802Z,0.00
2022-07-26T00:33:31.790Z,0.00
2022-07-26T00:34:31.809Z,0.00
2022-07-26T00:35:31.768Z,0.00
2022-07-26T00:36:31.757Z,0.00
2022-07-26T00:37:31.766Z,0.00
2022-07-26T00:38:31.788Z,0.00
2022-07-26T00:39:31.748Z,0.00
2022-07-26T00:40:31.715Z,0.00
2022-07-26T00:41:31.717Z,0.00
2022-07-26T00:42:31.703Z,0.00
2022-07-26T00:43:31.689Z,0.00
2022-07-26T00:44:31.684Z,0.00
2022-07-26T00:45:31.684Z,0.00
2022-07-26T00:47:40.619Z,0.00
2022-07-26T00:48:41.676Z,0.00
2022-07-26T00:49:41.608Z,0.00
2022-07-26T00:50:41.601Z,0.00
2022-07-26T00:51:41.568Z,0.00
2022-07-26T00:52:41.558Z,0.00
2022-07-26T00:53:41.561Z,0.00
2022-07-26T00:54:41.564Z,0.00
2022-07-26T00:55:41.540Z,0.00
2022-07-26T00:56:41.522Z,0.00
2022-07-26T00:57:41.505Z,0.00
2022-07-26T00:58:41.491Z,0.00
2022-07-26T00:59:41.493Z,0.00
2022-07-26T01:00:41.504Z,0.00
2022-07-26T01:01:41.679Z,0.00
2022-07-26T01:02:41.580Z,0.00
2022-07-26T01:03:41.443Z,0.00
2022-07-26T01:04:41.431Z,0.00
2022-07-26T01:05:41.436Z,0.00
2022-07-26T01:06:41.429Z,0.00
2022-07-26T01:07:41.395Z,0.00
2022-07-26T01:08:41.384Z,0.00
2022-07-26T01:09:41.367Z,0.00
2022-07-26T01:10:41.358Z,0.00
2022-07-26T01:11:41.362Z,0.00
2022-07-26T01:12:41.334Z,0.00
2022-07-26T01:13:41.327Z,0.00
2022-07-26T01:14:41.320Z,0.00
2022-07-26T01:15:41.355Z,0.00
2022-07-26T01:16:41.404Z,0.00
2022-07-26T01:17:41.283Z,0.00
2022-07-26T01:18:41.273Z,0.00
2022-07-26T01:19:41.256Z,0.00
2022-07-26T01:20:41.252Z,0.00
2022-07-26T01:21:41.252Z,0.00
2022-07-26T01:22:41.242Z,0.00
2022-07-26T01:23:41.246Z,0.00
2022-07-26T01:24:41.205Z,0.00
2022-07-26T01:25:43.629Z,0.00
2022-07-26T01:26:41.183Z,0.00
2022-07-26T01:27:41.179Z,0.00
2022-07-26T01:28:41.154Z,0.00
2022-07-26T01:29:41.154Z,0.00
2022-07-26T01:30:41.133Z,0.00
2022-07-26T01:31:41.276Z,0.00
2022-07-26T01:32:41.133Z,0.00
2022-07-26T01:33:41.111Z,0.00
2022-07-26T01:34:41.099Z,0.00
2022-07-26T01:35:41.087Z,0.00
2022-07-26T01:36:41.070Z,0.00
2022-07-26T01:37:41.097Z,0.00
2022-07-26T01:38:41.055Z,0.00
2022-07-26T01:39:41.035Z,0.00
2022-07-26T01:40:41.029Z,0.00
2022-07-26T01:41:41.019Z,0.00
2022-07-26T01:42:41.030Z,0.00
2022-07-26T01:43:40.999Z,0.00
2022-07-26T01:44:40.990Z,0.00
2022-07-26T01:45:41.056Z,0.00
2022-07-26T01:46:40.980Z,0.00
2022-07-26T01:47:40.974Z,0.00
2022-07-26T01:48:41.023Z,0.00
2022-07-26T01:49:40.939Z,0.00
2022-07-26T01:50:40.920Z,0.00
2022-07-26T01:51:40.898Z,0.00
2022-07-26T01:52:40.907Z,0.00
2022-07-26T01:53:40.892Z,0.00
2022-07-26T01:54:40.871Z,0.00
2022-07-26T01:55:40.859Z,0.00
2022-07-26T01:56:40.859Z,0.00
2022-07-26T01:57:40.850Z,0.00
2022-07-26T01:58:40.834Z,0.00
2022-07-26T01:59:40.841Z,0.00
2022-07-26T02:00:40.803Z,0.00
2022-07-26T02:01:40.819Z,0.00
2022-07-26T02:02:40.939Z,0.00
2022-07-26T02:03:40.770Z,0.00
2022-07-26T02:04:40.774Z,0.00
2022-07-26T02:05:40.742Z,0.00
2022-07-26T02:06:40.737Z,0.00
2022-07-26T02:07:43.092Z,0.00
2022-07-26T02:08:40.711Z,0.00
2022-07-26T02:09:40.853Z,0.00
2022-07-26T02:10:40.701Z,0.00
2022-07-26T02:11:40.676Z,0.00
2022-07-26T02:12:40.664Z,0.00
2022-07-26T02:13:40.697Z,0.00
2022-07-26T02:14:40.672Z,0.00
2022-07-26T02:15:40.699Z,0.00
2022-07-26T02:16:40.621Z,0.00
2022-07-26T02:17:40.620Z,0.00
2022-07-26T02:18:40.600Z,0.00
2022-07-26T02:19:40.600Z,0.00
2022-07-26T02:20:40.590Z,0.00
2022-07-26T02:21:40.569Z,0.00
2022-07-26T02:22:40.554Z,0.00
2022-07-26T02:23:41.689Z,0.00
2022-07-26T02:24:40.542Z,0.00
2022-07-26T02:25:40.533Z,0.00
2022-07-26T02:26:40.525Z,0.00
2022-07-26T02:27:40.509Z,0.00
2022-07-26T02:28:40.486Z,0.00
2022-07-26T02:29:40.474Z,0.00
2022-07-26T02:30:40.481Z,0.00
2022-07-26T02:31:40.558Z,0.00
2022-07-26T02:32:40.445Z,0.00
2022-07-26T02:33:40.439Z,0.00
2022-07-26T02:34:40.419Z,0.00
2022-07-26T02:35:40.431Z,0.00
2022-07-26T02:36:40.412Z,0.00
2022-07-26T02:37:43.904Z,0.00
2022-07-26T02:38:40.382Z,0.00
2022-07-26T02:39:40.362Z,0.00
2022-07-26T02:40:40.361Z,0.00
2022-07-26T02:41:40.463Z,0.00
2022-07-26T02:42:40.334Z,0.00
2022-07-26T02:43:40.321Z,0.00
2022-07-26T02:44:40.322Z,0.00
2022-07-26T02:45:40.316Z,0.00
2022-07-26T02:46:40.430Z,0.00
2022-07-26T02:48:49.298Z,0.00
2022-07-26T02:49:50.230Z,0.00
2022-07-26T02:50:50.732Z,0.00
2022-07-26T02:51:50.212Z,0.00
2022-07-26T02:52:50.187Z,0.00
2022-07-26T02:53:50.171Z,0.00
2022-07-26T02:54:50.164Z,0.00
2022-07-26T02:55:50.165Z,0.00
2022-07-26T02:56:50.151Z,0.00
2022-07-26T02:57:50.136Z,0.00
2022-07-26T02:58:50.133Z,0.00
2022-07-26T02:59:50.112Z,0.00
2022-07-26T03:00:50.113Z,0.00
2022-07-26T03:01:50.144Z,0.00
2022-07-26T03:02:50.169Z,0.00
2022-07-26T03:03:51.050Z,0.00
2022-07-26T03:04:50.057Z,4.00
2022-07-26T03:05:50.058Z,4.00
2022-07-26T03:06:50.033Z,4.00
2022-07-26T03:07:50.027Z,0.00
2022-07-26T03:08:50.014Z,4.00
2022-07-26T03:09:50.028Z,4.00
2022-07-26T03:10:50.016Z,4.00
2022-07-26T03:11:49.974Z,4.00
2022-07-26T03:12:49.960Z,4.00
2022-07-26T03:13:49.957Z,8.00
2022-07-26T03:14:49.947Z,4.00
2022-07-26T03:15:50.032Z,8.00
2022-07-26T03:16:49.945Z,8.00
2022-07-26T03:17:49.912Z,8.00
2022-07-26T03:18:49.897Z,8.00
2022-07-26T03:19:49.892Z,8.00
2022-07-26T03:20:49.879Z,8.00
2022-07-26T03:21:49.885Z,12.00
2022-07-26T03:22:49.859Z,12.00
2022-07-26T03:23:49.847Z,16.00
2022-07-26T03:24:49.834Z,12.00
2022-07-26T03:25:49.833Z,12.00
2022-07-26T03:26:49.846Z,12.00
2022-07-26T03:27:49.798Z,12.00
2022-07-26T03:28:49.794Z,12.00
2022-07-26T03:29:49.789Z,16.00
2022-07-26T03:30:49.846Z,12.00
2022-07-26T03:31:49.775Z,16.00
2022-07-26T03:32:49.757Z,16.00
2022-07-26T03:33:49.739Z,20.00
2022-07-26T03:34:49.725Z,16.00
2022-07-26T03:35:49.714Z,20.00
2022-07-26T03:36:49.720Z,20.00
2022-07-26T03:37:49.713Z,20.00
2022-07-26T03:38:49.681Z,24.00
2022-07-26T03:39:49.673Z,32.00
2022-07-26T03:40:49.669Z,36.00
2022-07-26T03:41:49.646Z,52.00
2022-07-26T03:42:49.647Z,56.00
2022-07-26T03:43:49.639Z,68.00
2022-07-26T03:44:49.615Z,76.00
2022-07-26T03:45:49.644Z,84.00
2022-07-26T03:46:49.605Z,88.00
2022-07-26T03:47:49.582Z,88.00
2022-07-26T03:48:49.628Z,84.00
2022-07-26T03:49:49.557Z,92.00
2022-07-26T03:50:49.547Z,96.00
2022-07-26T03:51:49.548Z,104.00
2022-07-26T03:52:49.527Z,112.00
2022-07-26T03:53:49.527Z,124.00
2022-07-26T03:54:49.502Z,140.00
2022-07-26T03:55:49.493Z,152.00
2022-07-26T03:56:49.478Z,164.00
2022-07-26T03:57:49.469Z,180.00
2022-07-26T03:58:49.475Z,192.00
2022-07-26T03:59:49.447Z,208.00
2022-07-26T04:00:49.436Z,216.00
2022-07-26T04:01:49.482Z,228.00
2022-07-26T04:02:49.502Z,236.00
2022-07-26T04:03:49.421Z,248.00
2022-07-26T04:04:49.399Z,252.00
2022-07-26T04:05:49.379Z,268.00
2022-07-26T04:06:49.367Z,280.00
2022-07-26T04:07:52.663Z,292.00
2022-07-26T04:08:49.375Z,308.00
2022-07-26T04:09:49.348Z,320.00
2022-07-26T04:10:49.341Z,332.00
2022-07-26T04:11:49.316Z,344.00
2022-07-26T04:12:49.307Z,356.00
2022-07-26T04:13:49.291Z,372.00
2022-07-26T04:14:49.282Z,396.00
2022-07-26T04:15:49.282Z,420.00
2022-07-26T04:16:49.321Z,452.00
2022-07-26T04:17:49.297Z,480.00
2022-07-26T04:18:49.240Z,508.00
2022-07-26T04:19:49.241Z,532.00
2022-07-26T04:20:49.231Z,552.00
2022-07-26T04:21:49.208Z,576.00
2022-07-26T04:22:49.189Z,604.00
2022-07-26T04:23:51.286Z,632.00
2022-07-26T04:24:49.172Z,660.00
2022-07-26T04:25:49.184Z,696.00
2022-07-26T04:26:49.165Z,736.00
2022-07-26T04:27:49.142Z,776.00
2022-07-26T04:28:49.130Z,812.00
2022-07-26T04:29:49.118Z,844.00
2022-07-26T04:30:49.195Z,872.00
2022-07-26T04:31:49.103Z,908.00
2022-07-26T04:32:49.090Z,948.00
2022-07-26T04:33:49.073Z,984.00
2022-07-26T04:34:49.070Z,1020.00
2022-07-26T04:35:49.061Z,1052.00
2022-07-26T04:36:49.057Z,1080.00
2022-07-26T04:37:49.035Z,1096.00
2022-07-26T04:38:49.045Z,1116.00
2022-07-26T04:39:54.463Z,1140.00
2022-07-26T04:40:49.000Z,1176.00
2022-07-26T04:41:49.013Z,1220.00
2022-07-26T04:42:48.992Z,1276.00
2022-07-26T04:43:48.989Z,1320.00
2022-07-26T04:44:48.969Z,1352.00
2022-07-26T04:45:49.042Z,1404.00
2022-07-26T04:46:48.950Z,1468.00
2022-07-26T04:47:49.130Z,1552.00
2022-07-26T04:49:57.898Z,1688.00
2022-07-26T04:50:58.894Z,1732.00
2022-07-26T04:51:59.476Z,1776.00
2022-07-26T04:52:58.884Z,1820.00
2022-07-26T04:53:58.850Z,1880.00
2022-07-26T04:54:58.832Z,1940.00
2022-07-26T04:55:58.822Z,2004.00
2022-07-26T04:56:58.831Z,2044.00
2022-07-26T04:57:58.814Z,2076.00
2022-07-26T04:58:58.785Z,2092.00
2022-07-26T05:01:14.180Z,2268.00
2022-07-26T05:01:58.870Z,2352.00
2022-07-26T05:02:58.875Z,2100.00
2022-07-26T05:03:58.730Z,1904.00
2022-07-26T05:04:58.724Z,2008.00
2022-07-26T05:05:58.725Z,2168.00
2022-07-26T05:06:58.704Z,2276.00
2022-07-26T05:07:58.698Z,2380.00
2022-07-26T05:08:58.679Z,2348.00
2022-07-26T05:09:58.684Z,2240.00
2022-07-26T05:10:58.664Z,2144.00
2022-07-26T05:11:58.660Z,2288.00
2022-07-26T05:12:58.647Z,2480.00
2022-07-26T05:13:58.650Z,2460.00
2022-07-26T05:14:58.617Z,2392.00
2022-07-26T05:15:58.639Z,2420.00
2022-07-26T05:16:58.757Z,2580.00
2022-07-26T05:17:58.584Z,2720.00
2022-07-26T05:18:58.589Z,2764.00
2022-07-26T05:20:02.981Z,2560.00
2022-07-26T05:20:58.556Z,2652.00
2022-07-26T05:21:58.543Z,3024.00
2022-07-26T05:22:58.525Z,3452.00
2022-07-26T05:23:58.536Z,3752.00
2022-07-26T05:24:58.512Z,4180.00
2022-07-26T05:25:58.493Z,4764.00
2022-07-26T05:26:58.759Z,5240.00
2022-07-26T05:27:58.489Z,4904.00
2022-07-26T05:28:58.479Z,3624.00
2022-07-26T05:29:58.463Z,3648.00
2022-07-26T05:30:58.537Z,4004.00
2022-07-26T05:31:58.440Z,4372.00
2022-07-26T05:32:58.431Z,4700.00
2022-07-26T05:33:58.418Z,4424.00
2022-07-26T05:34:58.416Z,3696.00
2022-07-26T05:35:58.388Z,3272.00
2022-07-26T05:36:58.377Z,2744.00
2022-07-26T05:37:58.364Z,2308.00
2022-07-26T05:38:58.380Z,2056.00
2022-07-26T05:39:58.357Z,1992.00
2022-07-26T05:40:58.329Z,1924.00
2022-07-26T05:41:58.329Z,1960.00
2022-07-26T05:42:58.312Z,1992.00
2022-07-26T05:43:58.299Z,1960.00
2022-07-26T05:44:58.307Z,2016.00
2022-07-26T05:45:58.355Z,1972.00
2022-07-26T05:46:58.269Z,2096.00
2022-07-26T05:47:58.251Z,2748.00
2022-07-26T05:48:58.327Z,3724.00
2022-07-26T05:49:58.235Z,4804.00
2022-07-26T05:50:58.234Z,5500.00
2022-07-26T05:52:01.289Z,5732.00
2022-07-26T05:52:58.212Z,5820.00
2022-07-26T05:53:58.205Z,5912.00
2022-07-26T05:54:58.179Z,5476.00
2022-07-26T05:55:58.203Z,4444.00
2022-07-26T05:56:58.174Z,3796.00
2022-07-26T05:57:58.150Z,3784.00
2022-07-26T05:58:58.142Z,4852.00
2022-07-26T05:59:58.131Z,6300.00
2022-07-26T06:00:58.147Z,7932.00
2022-07-26T06:01:58.236Z,7244.00
2022-07-26T06:02:58.088Z,6860.00
2022-07-26T06:03:58.157Z,7268.00
2022-07-26T06:04:58.068Z,6268.00
2022-07-26T06:05:58.063Z,6340.00
2022-07-26T06:06:58.881Z,6316.00
2022-07-26T06:07:58.037Z,5840.00
2022-07-26T06:08:58.025Z,5520.00
2022-07-26T06:09:58.016Z,5504.00
2022-07-26T06:10:58.009Z,5704.00
2022-07-26T06:11:58.003Z,6144.00
2022-07-26T06:12:57.986Z,8024.00
2022-07-26T06:13:57.964Z,7784.00
2022-07-26T06:14:57.960Z,7520.00
2022-07-26T06:15:57.947Z,7040.00
2022-07-26T06:16:57.992Z,6392.00
2022-07-26T06:17:57.930Z,5516.00
2022-07-26T06:18:57.914Z,4648.00
2022-07-26T06:19:57.915Z,3928.00
2022-07-26T06:21:02.354Z,3836.00
2022-07-26T06:21:57.894Z,3860.00
2022-07-26T06:22:57.894Z,3908.00
2022-07-26T06:23:57.856Z,4148.00
2022-07-26T06:24:57.852Z,4868.00
2022-07-26T06:25:57.853Z,6256.00
2022-07-26T06:27:05.394Z,7192.00
2022-07-26T06:27:57.846Z,8612.00
2022-07-26T06:28:57.806Z,6036.00
2022-07-26T06:29:57.790Z,5108.00
2022-07-26T06:30:57.781Z,4624.00
2022-07-26T06:31:57.794Z,4412.00
2022-07-26T06:32:57.779Z,4472.00
2022-07-26T06:33:57.768Z,4340.00
2022-07-26T06:34:57.745Z,3988.00
2022-07-26T06:35:57.745Z,3712.00
2022-07-26T06:36:57.756Z,3424.00
2022-07-26T06:37:57.722Z,3220.00
2022-07-26T06:38:57.699Z,3332.00
2022-07-26T06:39:57.697Z,3184.00
2022-07-26T06:40:57.700Z,2876.00
2022-07-26T06:41:57.666Z,2608.00
2022-07-26T06:43:02.610Z,2608.00
2022-07-26T06:43:57.643Z,2824.00
2022-07-26T06:44:57.654Z,3016.00
2022-07-26T06:45:57.710Z,3048.00
2022-07-26T06:46:57.604Z,3012.00
2022-07-26T06:47:57.600Z,2908.00
2022-07-26T06:48:57.708Z,2804.00
2022-07-26T06:51:06.630Z,3256.00
2022-07-26T06:52:07.619Z,3396.00
2022-07-26T06:53:07.602Z,3996.00
2022-07-26T06:54:07.882Z,4764.00
2022-07-26T06:55:07.602Z,4888.00
2022-07-26T06:56:07.577Z,4524.00
2022-07-26T06:57:07.555Z,4116.00
2022-07-26T06:58:07.550Z,3752.00
2022-07-26T06:59:09.502Z,3676.00
2022-07-26T07:00:07.527Z,3856.00
2022-07-26T07:01:07.617Z,3780.00
2022-07-26T07:02:07.541Z,3636.00
2022-07-26T07:03:07.489Z,3704.00
2022-07-26T07:04:07.825Z,4008.00
2022-07-26T07:05:07.528Z,4372.00
2022-07-26T07:06:07.483Z,4360.00
2022-07-26T07:07:07.460Z,4204.00
2022-07-26T07:08:07.563Z,4156.00
2022-07-26T07:09:08.275Z,4188.00
2022-07-26T07:10:07.416Z,4524.00
2022-07-26T07:11:07.406Z,4540.00
2022-07-26T07:12:09.824Z,4840.00
2022-07-26T07:13:07.381Z,5436.00
2022-07-26T07:14:07.731Z,6032.00
2022-07-26T07:15:07.366Z,6320.00
2022-07-26T07:16:07.542Z,6568.00
2022-07-26T07:17:12.844Z,6880.00
2022-07-26T07:18:07.338Z,6784.00
2022-07-26T07:19:07.328Z,6072.00
2022-07-26T07:20:07.410Z,5960.00
2022-07-26T07:21:07.563Z,5560.00
2022-07-26T07:22:07.735Z,5116.00
2022-07-26T07:23:07.405Z,4784.00
2022-07-26T07:24:07.641Z,4616.00
2022-07-26T07:25:07.476Z,4772.00
2022-07-26T07:26:08.489Z,5292.00
2022-07-26T07:27:07.541Z,5080.00
2022-07-26T07:28:07.285Z,4332.00
2022-07-26T07:29:07.407Z,3528.00
2022-07-26T07:30:07.271Z,3032.00
2022-07-26T07:31:07.209Z,2648.00
2022-07-26T07:32:07.227Z,2432.00
2022-07-26T07:33:07.188Z,2388.00
2022-07-26T07:34:07.504Z,2820.00
2022-07-26T07:35:08.095Z,3944.00
2022-07-26T07:36:07.125Z,5524.00
2022-07-26T07:37:07.114Z,6740.00
2022-07-26T07:38:07.109Z,7888.00
2022-07-26T07:39:11.134Z,8780.00
2022-07-26T07:40:07.101Z,8644.00
2022-07-26T07:41:07.072Z,7896.00
2022-07-26T07:42:07.060Z,7300.00
2022-07-26T07:43:07.072Z,6768.00
2022-07-26T07:44:07.355Z,5980.00
2022-07-26T07:45:07.036Z,5640.00
2022-07-26T07:46:07.020Z,5936.00
2022-07-26T07:47:07.059Z,6644.00
2022-07-26T07:48:06.999Z,8108.00
2022-07-26T07:49:07.501Z,9916.00
2022-07-26T07:50:06.991Z,7856.00
2022-07-26T07:51:06.966Z,8152.00
2022-07-26T07:52:06.956Z,7632.00
2022-07-26T07:53:06.950Z,8088.00
2022-07-26T07:54:07.521Z,9096.00
2022-07-26T07:55:37.760Z,16896.00
2022-07-26T07:56:06.906Z,18624.00
2022-07-26T07:57:06.899Z,13164.00
2022-07-26T07:58:06.891Z,19808.00
2022-07-26T07:59:07.257Z,13456.00
2022-07-26T08:00:06.880Z,15032.00
2022-07-26T08:01:06.952Z,12088.00
2022-07-26T08:02:06.846Z,18176.00
2022-07-26T08:03:06.835Z,19104.00
2022-07-26T08:04:06.879Z,15592.00
2022-07-26T08:05:13.937Z,14476.00
2022-07-26T08:06:06.811Z,15192.00
2022-07-26T08:07:06.793Z,15096.00
2022-07-26T08:08:06.785Z,16928.00
2022-07-26T08:09:06.864Z,11872.00
2022-07-26T08:10:06.772Z,12340.00
2022-07-26T08:11:07.926Z,21760.00
2022-07-26T08:12:06.755Z,22336.00
2022-07-26T08:13:06.742Z,13628.00
2022-07-26T08:14:06.709Z,19584.00
2022-07-26T08:15:07.241Z,19584.00
2022-07-26T08:16:09.544Z,17056.00
2022-07-26T08:17:06.708Z,15564.00
2022-07-26T08:18:06.675Z,15104.00
2022-07-26T08:19:06.661Z,19584.00
2022-07-26T08:20:06.653Z,14232.00
2022-07-26T08:21:06.640Z,14256.00
2022-07-26T08:22:06.636Z,12028.00
2022-07-26T08:23:06.618Z,10296.00
2022-07-26T08:24:06.619Z,10048.00
2022-07-26T08:25:06.596Z,10036.00
2022-07-26T08:26:07.041Z,10572.00
2022-07-26T08:27:06.572Z,19232.00
2022-07-26T08:28:09.316Z,18464.00
2022-07-26T08:29:06.581Z,11960.00
2022-07-26T08:30:06.551Z,6480.00
2022-07-26T08:31:06.630Z,6752.00
2022-07-26T08:32:06.610Z,7532.00
2022-07-26T08:33:06.532Z,11384.00
2022-07-26T08:34:06.500Z,21632.00
2022-07-26T08:35:16.973Z,22016.00
2022-07-26T08:36:06.513Z,22400.00
2022-07-26T08:37:17.036Z,16556.00
2022-07-26T08:38:06.453Z,14516.00
2022-07-26T08:39:06.777Z,14192.00
2022-07-26T08:40:06.453Z,14368.00
2022-07-26T08:41:06.431Z,14300.00
2022-07-26T08:42:06.414Z,17472.00
2022-07-26T08:43:06.405Z,22272.00
2022-07-26T08:44:06.393Z,20768.00
2022-07-26T08:45:06.381Z,16380.00
2022-07-26T08:46:06.378Z,19040.00
2022-07-26T08:47:06.470Z,20960.00
2022-07-26T08:48:17.282Z,15840.00
2022-07-26T08:49:06.956Z,21760.00
2022-07-26T08:50:06.332Z,18176.00
2022-07-26T08:52:15.325Z,22112.00
2022-07-26T08:53:16.293Z,22240.00
2022-07-26T08:54:16.285Z,21920.00
2022-07-26T08:55:16.263Z,21472.00
2022-07-26T08:56:16.252Z,16032.00
2022-07-26T08:57:16.253Z,21760.00
2022-07-26T08:58:16.248Z,21760.00
2022-07-26T08:59:20.580Z,21472.00
2022-07-26T09:00:16.279Z,17472.00
2022-07-26T09:01:16.244Z,15236.00
2022-07-26T09:02:16.201Z,13680.00
2022-07-26T09:03:16.190Z,23744.00
2022-07-26T09:04:29.980Z,23648.00
2022-07-26T09:05:16.155Z,24864.00
2022-07-26T09:06:16.156Z,23296.00
2022-07-26T09:07:16.150Z,24640.00
2022-07-26T09:08:16.124Z,24832.00
2022-07-26T09:09:16.107Z,14656.00
2022-07-26T09:10:16.211Z,19776.00
2022-07-26T09:11:16.086Z,24480.00
2022-07-26T09:12:16.091Z,25152.00
2022-07-26T09:13:16.081Z,18016.00
2022-07-26T09:14:16.059Z,17248.00
2022-07-26T09:15:16.053Z,18080.00
2022-07-26T09:16:16.122Z,25440.00
2022-07-26T09:17:16.038Z,22624.00
2022-07-26T09:18:16.017Z,15448.00
2022-07-26T09:19:16.034Z,14296.00
2022-07-26T09:20:16.073Z,14252.00
2022-07-26T09:21:15.983Z,16416.00
2022-07-26T09:22:15.987Z,15732.00
2022-07-26T09:23:15.961Z,14800.00
2022-07-26T09:24:15.942Z,18304.00
2022-07-26T09:25:15.947Z,14604.00
2022-07-26T09:26:15.920Z,15100.00
2022-07-26T09:27:15.921Z,20288.00
2022-07-26T09:28:15.919Z,21632.00
2022-07-26T09:29:15.891Z,18624.00
2022-07-26T09:30:16.007Z,17004.00
2022-07-26T09:31:15.931Z,26208.00
2022-07-26T09:32:15.938Z,26464.00
2022-07-26T09:33:15.859Z,25568.00
2022-07-26T09:34:15.835Z,23328.00
2022-07-26T09:35:44.504Z,13860.00
2022-07-26T09:36:15.824Z,12712.00
2022-07-26T09:37:15.813Z,10868.00
2022-07-26T09:38:15.808Z,8576.00
2022-07-26T09:39:15.791Z,6364.00
2022-07-26T09:40:15.822Z,4904.00
2022-07-26T09:41:16.298Z,4004.00
2022-07-26T09:42:28.646Z,3448.00
2022-07-26T09:43:15.779Z,3060.00
2022-07-26T09:44:15.727Z,2692.00
2022-07-26T09:45:15.719Z,2356.00
2022-07-26T09:46:15.782Z,2088.00
2022-07-26T09:47:15.696Z,1844.00
2022-07-26T09:48:15.694Z,1688.00
2022-07-26T09:49:15.851Z,1612.00
2022-07-26T09:50:15.827Z,1472.00
2022-07-26T09:51:15.650Z,1312.00
2022-07-26T09:52:15.635Z,1152.00
2022-07-26T09:53:15.625Z,1008.00
2022-07-26T09:54:16.089Z,996.00
2022-07-26T09:55:15.618Z,1032.00
2022-07-26T09:56:15.591Z,1084.00
2022-07-26T09:57:15.586Z,1188.00
2022-07-26T09:58:15.578Z,1352.00
2022-07-26T09:59:15.584Z,1500.00
2022-07-26T10:00:15.556Z,1780.00
2022-07-26T10:01:15.585Z,2040.00
2022-07-26T10:02:15.532Z,2220.00
2022-07-26T10:03:15.548Z,2440.00
2022-07-26T10:04:15.543Z,2532.00
2022-07-26T10:05:15.495Z,2588.00
2022-07-26T10:06:15.493Z,2548.00
2022-07-26T10:07:15.482Z,2452.00
2022-07-26T10:08:15.466Z,2388.00
2022-07-26T10:09:15.461Z,2332.00
2022-07-26T10:10:15.466Z,2344.00
2022-07-26T10:11:15.451Z,2348.00
2022-07-26T10:12:15.416Z,2328.00
2022-07-26T10:13:15.402Z,2256.00
2022-07-26T10:14:15.396Z,2168.00
2022-07-26T10:15:15.379Z,2156.00
2022-07-26T10:16:15.419Z,2200.00
2022-07-26T10:17:15.360Z,2336.00
2022-07-26T10:18:18.290Z,2600.00
2022-07-26T10:19:15.338Z,2912.00
2022-07-26T10:20:17.673Z,3224.00
2022-07-26T10:21:15.349Z,3528.00
2022-07-26T10:22:15.306Z,3832.00
2022-07-26T10:23:15.309Z,4088.00
2022-07-26T10:24:15.292Z,4340.00
2022-07-26T10:25:15.272Z,4588.00
2022-07-26T10:26:15.295Z,4892.00
2022-07-26T10:27:15.264Z,5128.00
2022-07-26T10:28:15.257Z,5332.00
2022-07-26T10:29:15.231Z,5444.00
2022-07-26T10:30:15.214Z,5464.00
2022-07-26T10:31:15.241Z,5452.00
2022-07-26T10:32:15.215Z,5424.00
2022-07-26T10:33:15.180Z,5392.00
2022-07-26T10:34:15.171Z,5372.00
2022-07-26T10:35:15.160Z,5308.00
2022-07-26T10:36:15.148Z,5248.00
2022-07-26T10:37:15.142Z,5204.00
2022-07-26T10:38:15.128Z,5184.00
2022-07-26T10:39:16.145Z,5208.00
2022-07-26T10:40:15.123Z,5264.00
2022-07-26T10:41:15.103Z,5388.00
2022-07-26T10:42:15.088Z,5580.00
2022-07-26T10:43:43.228Z,5756.00
2022-07-26T10:44:15.062Z,6024.00
2022-07-26T10:45:15.050Z,6324.00
2022-07-26T10:46:15.165Z,6736.00
2022-07-26T10:47:15.076Z,7068.00
2022-07-26T10:48:15.027Z,7372.00
2022-07-26T10:49:15.063Z,7632.00
2022-07-26T10:50:14.998Z,7824.00
2022-07-26T10:51:14.984Z,7996.00
2022-07-26T10:53:23.479Z,8228.00
2022-07-26T10:54:24.435Z,8284.00
2022-07-26T10:55:24.422Z,8408.00
2022-07-26T10:56:24.423Z,8608.00
2022-07-26T10:57:24.419Z,8900.00
2022-07-26T10:58:24.394Z,9372.00
2022-07-26T10:59:46.045Z,9980.00
2022-07-26T11:00:24.381Z,10696.00
2022-07-26T11:01:24.430Z,11472.00
2022-07-26T11:02:24.456Z,12232.00
2022-07-26T11:03:24.391Z,13504.00
2022-07-26T11:04:24.337Z,13952.00
2022-07-26T11:05:24.318Z,15128.00
2022-07-26T11:06:24.308Z,16896.00
2022-07-26T11:07:24.302Z,20864.00
2022-07-26T11:08:24.300Z,17472.00
2022-07-26T11:09:24.295Z,19040.00
2022-07-26T11:10:24.277Z,26880.00
2022-07-26T11:11:24.255Z,20864.00
2022-07-26T11:12:24.242Z,13196.00
2022-07-26T11:13:24.253Z,8624.00
2022-07-26T11:14:24.226Z,5484.00
2022-07-26T11:15:24.235Z,4556.00
2022-07-26T11:16:24.286Z,5244.00
2022-07-26T11:17:24.191Z,6364.00
2022-07-26T11:18:24.228Z,9360.00
2022-07-26T11:19:24.176Z,7504.00
2022-07-26T11:20:29.117Z,6820.00
2022-07-26T11:21:24.150Z,6152.00
2022-07-26T11:22:24.134Z,5160.00
2022-07-26T11:23:24.135Z,4376.00
2022-07-26T11:24:24.112Z,3936.00
2022-07-26T11:25:24.130Z,3792.00
2022-07-26T11:26:24.098Z,3972.00
2022-07-26T11:27:24.091Z,4184.00
2022-07-26T11:28:24.098Z,4328.00
2022-07-26T11:29:24.080Z,4372.00
2022-07-26T11:30:24.064Z,4276.00
2022-07-26T11:31:24.103Z,4160.00
2022-07-26T11:32:24.129Z,4048.00
2022-07-26T11:33:24.015Z,4092.00
2022-07-26T11:34:24.019Z,4024.00
2022-07-26T11:35:23.993Z,3816.00
2022-07-26T11:36:23.995Z,3700.00
2022-07-26T11:37:23.972Z,3600.00
2022-07-26T11:38:23.956Z,3820.00
2022-07-26T11:39:24.018Z,4340.00
2022-07-26T11:40:23.937Z,4900.00
2022-07-26T11:41:34.981Z,5340.00
2022-07-26T11:42:23.917Z,5656.00
2022-07-26T11:43:23.902Z,5788.00
2022-07-26T11:44:23.904Z,5840.00
2022-07-26T11:45:23.880Z,5756.00
2022-07-26T11:46:23.972Z,5504.00
2022-07-26T11:47:25.462Z,5104.00
2022-07-26T11:48:24.161Z,4680.00
2022-07-26T11:49:41.378Z,4376.00
2022-07-26T11:50:23.937Z,4272.00
2022-07-26T11:51:23.814Z,4304.00
2022-07-26T11:52:25.143Z,4416.00
2022-07-26T11:53:23.810Z,4588.00
2022-07-26T11:54:23.784Z,4784.00
2022-07-26T11:55:23.802Z,5012.00
2022-07-26T11:56:23.769Z,5236.00
2022-07-26T11:57:23.778Z,5468.00
2022-07-26T11:58:23.734Z,5752.00
2022-07-26T11:59:23.734Z,6108.00
2022-07-26T12:00:23.753Z,6544.00
2022-07-26T12:01:23.706Z,7004.00
2022-07-26T12:02:23.700Z,7300.00
2022-07-26T12:03:23.687Z,7396.00
2022-07-26T12:04:23.824Z,7352.00
2022-07-26T12:05:23.894Z,7252.00
2022-07-26T12:06:23.652Z,7128.00
2022-07-26T12:07:23.636Z,6964.00
2022-07-26T12:08:23.635Z,6776.00
2022-07-26T12:09:23.641Z,6616.00
2022-07-26T12:10:24.347Z,6524.00
2022-07-26T12:11:23.599Z,6460.00
2022-07-26T12:12:23.584Z,6540.00
2022-07-26T12:13:23.580Z,6804.00
2022-07-26T12:14:23.558Z,7188.00
2022-07-26T12:15:23.559Z,7668.00
2022-07-26T12:16:23.615Z,8132.00
2022-07-26T12:17:23.544Z,8624.00
2022-07-26T12:18:23.516Z,9232.00
2022-07-26T12:19:23.513Z,10136.00
2022-07-26T12:20:23.496Z,11412.00
2022-07-26T12:21:23.493Z,12640.00
2022-07-26T12:22:23.472Z,13620.00
2022-07-26T12:23:23.468Z,14212.00
2022-07-26T12:24:23.488Z,14432.00
2022-07-26T12:25:23.445Z,14360.00
2022-07-26T12:26:23.482Z,14192.00
2022-07-26T12:27:23.430Z,13604.00
2022-07-26T12:28:23.418Z,12924.00
2022-07-26T12:29:23.409Z,12484.00
2022-07-26T12:30:23.400Z,12192.00
2022-07-26T12:31:23.516Z,11992.00